Time;durP1;ratioP1;P1;durP2;ratioP2;P2;SDS_P1;SDS_P2;PMS_P1;PMS_P2;Temp;Humidity;BMP_temperature;BMP_pressure;BME280_temperature;BME280_humidity;BME280_pressure;Samples;Min_cycle;Max_cycle;Signal;HPM_P1;HPM_P2
2021/10/19 00:01:02;;;;;;;16.30;14.70;;;9.50;99.90;;;;;;5048386;28;20415;-83
2021/10/19 00:03:28;;;;;;;17.98;16.08;;;9.50;99.90;;;;;;5049737;28;20370;-82
2021/10/19 00:05:54;;;;;;;18.25;15.43;;;9.40;99.90;;;;;;5052405;28;20379;-83
2021/10/19 00:08:19;;;;;;;19.05;15.88;;;9.40;99.90;;;;;;5051579;28;20394;-83
2021/10/19 00:10:45;;;;;;;18.25;16.35;;;9.40;99.90;;;;;;5052296;28;20372;-82
2021/10/19 00:13:11;;;;;;;17.10;15.30;;;9.40;99.90;;;;;;5051999;28;20379;-82
2021/10/19 00:15:36;;;;;;;18.13;16.23;;;9.40;99.90;;;;;;5050708;28;20399;-82
2021/10/19 00:18:03;;;;;;;18.43;16.63;;;9.40;99.90;;;;;;5051660;28;20384;-82
2021/10/19 00:20:29;;;;;;;18.25;16.33;;;9.30;99.90;;;;;;5051835;28;20372;-82
2021/10/19 00:22:55;;;;;;;18.17;16.23;;;9.40;99.90;;;;;;5051390;28;20387;-82
2021/10/19 00:25:21;;;;;;;17.05;15.30;;;9.30;99.90;;;;;;5051832;28;20376;-82
2021/10/19 00:27:47;;;;;;;15.87;14.23;;;9.30;99.90;;;;;;5051503;28;20423;-83
2021/10/19 00:30:14;;;;;;;16.60;14.80;;;9.30;99.90;;;;;;5050555;28;20889;-82
2021/10/19 00:32:40;;;;;;;17.60;14.95;;;9.20;99.90;;;;;;5051431;28;20384;-83
2021/10/19 00:35:07;;;;;;;20.17;16.70;;;9.20;99.90;;;;;;5050538;28;20752;-83
2021/10/19 00:37:33;;;;;;;18.85;16.65;;;9.10;99.90;;;;;;5051697;28;20772;-82
2021/10/19 00:39:58;;;;;;;19.08;17.08;;;9.00;99.90;;;;;;5051683;28;20895;-83
2021/10/19 00:42:25;;;;;;;19.40;17.37;;;9.00;99.90;;;;;;5051457;28;20399;-82
2021/10/19 00:44:50;;;;;;;20.05;17.75;;;8.90;99.90;;;;;;5051766;28;20376;-82
2021/10/19 00:47:20;;;;;;;20.17;17.83;;;9.00;99.90;;;;;;5051319;28;20425;-82
2021/10/19 00:49:47;;;;;;;20.33;18.23;;;8.90;99.90;;;;;;5051689;28;20471;-82
2021/10/19 00:52:14;;;;;;;21.10;18.90;;;8.80;99.90;;;;;;5051468;28;20391;-82
2021/10/19 00:54:40;;;;;;;20.30;18.13;;;8.80;99.90;;;;;;5050093;28;20439;-82
2021/10/19 00:57:05;;;;;;;19.50;17.37;;;8.70;99.90;;;;;;5051240;28;20407;-82
2021/10/19 00:59:32;;;;;;;20.40;18.20;;;8.60;99.90;;;;;;5051736;28;20659;-83
2021/10/19 01:01:58;;;;;;;19.33;17.33;;;8.60;99.90;;;;;;5049656;28;20415;-82
2021/10/19 01:04:24;;;;;;;19.48;17.00;;;8.60;99.90;;;;;;5050692;28;20746;-82
2021/10/19 01:06:49;;;;;;;20.03;17.80;;;8.50;99.90;;;;;;5050724;28;20895;-83
2021/10/19 01:09:15;;;;;;;20.73;18.50;;;8.40;99.90;;;;;;5051178;28;20372;-83
2021/10/19 01:11:40;;;;;;;22.10;19.08;;;8.40;99.90;;;;;;5050844;28;20392;-83
2021/10/19 01:14:06;;;;;;;24.30;20.13;;;8.30;99.90;;;;;;5050791;28;20914;-83
2021/10/19 01:16:32;;;;;;;21.37;18.47;;;8.20;99.90;;;;;;5051053;28;20395;-82
2021/10/19 01:18:58;;;;;;;25.13;22.42;;;8.20;99.90;;;;;;5049576;28;20885;-82
2021/10/19 01:21:25;;;;;;;26.55;22.88;;;8.20;99.90;;;;;;5050471;28;20435;-82
2021/10/19 01:23:50;;;;;;;26.02;22.75;;;8.20;99.90;;;;;;5049139;28;20739;-82
2021/10/19 01:26:16;;;;;;;26.20;23.23;;;8.20;99.90;;;;;;5050489;28;20388;-82
2021/10/19 01:28:42;;;;;;;25.97;22.93;;;8.30;99.90;;;;;;5050126;28;20384;-82
2021/10/19 01:31:12;;;;;;;22.83;20.35;;;8.30;99.90;;;;;;5050236;28;20386;-82
2021/10/19 01:33:39;;;;;;;26.33;21.63;;;8.40;99.90;;;;;;5051168;28;20380;-81
2021/10/19 01:36:05;;;;;;;25.27;21.95;;;8.40;99.90;;;;;;5051092;28;20450;-82
2021/10/19 01:38:34;;;;;;;25.83;21.40;;;8.40;99.90;;;;;;5050392;28;20375;-82
2021/10/19 01:41:00;;;;;;;22.48;20.05;;;8.40;99.90;;;;;;5050691;28;20443;-82
2021/10/19 01:43:27;;;;;;;22.13;19.73;;;8.40;99.90;;;;;;5051019;28;20376;-82
2021/10/19 01:45:58;;;;;;;21.20;18.85;;;8.50;99.90;;;;;;5050810;28;20372;-82
2021/10/19 01:48:26;;;;;;;24.98;21.42;;;8.50;99.90;;;;;;5048758;28;20388;-82
2021/10/19 01:50:52;;;;;;;22.73;20.33;;;8.50;99.90;;;;;;5050139;28;20383;-83
2021/10/19 01:53:19;;;;;;;22.20;19.90;;;8.50;99.90;;;;;;5049251;28;20399;-82
2021/10/19 01:55:44;;;;;;;21.60;19.35;;;8.60;99.90;;;;;;5047026;28;20484;-83
2021/10/19 01:58:11;;;;;;;21.92;19.63;;;8.60;99.90;;;;;;5050467;28;20858;-82
2021/10/19 02:00:38;;;;;;;23.20;20.80;;;8.60;99.90;;;;;;5050145;28;20395;-83
2021/10/19 02:03:04;;;;;;;22.83;20.45;;;8.60;99.90;;;;;;5050281;28;20391;-82
2021/10/19 02:05:30;;;;;;;25.38;21.08;;;8.60;99.90;;;;;;5050523;28;20380;-82
2021/10/19 02:07:56;;;;;;;22.65;20.25;;;8.70;99.90;;;;;;5050386;28;20376;-82
2021/10/19 02:10:21;;;;;;;23.87;20.10;;;8.70;99.90;;;;;;5049560;28;20391;-82
2021/10/19 02:12:47;;;;;;;23.15;20.30;;;8.60;99.90;;;;;;5050230;28;20387;-82
2021/10/19 02:15:12;;;;;;;25.15;22.48;;;8.70;99.90;;;;;;5051231;28;20403;-82
2021/10/19 02:17:38;;;;;;;20.80;18.60;;;8.70;99.90;;;;;;5050754;28;20429;-82
2021/10/19 02:20:06;;;;;;;24.70;20.80;;;8.70;99.90;;;;;;5050550;28;20417;-82
2021/10/19 02:22:32;;;;;;;23.13;20.30;;;8.70;99.90;;;;;;5049087;28;20404;-82
2021/10/19 02:24:58;;;;;;;22.35;19.98;;;8.70;99.90;;;;;;5050950;28;20920;-82
2021/10/19 02:27:24;;;;;;;23.88;20.83;;;8.70;99.90;;;;;;5050127;28;20380;-82
2021/10/19 02:29:50;;;;;;;21.87;19.57;;;8.70;99.90;;;;;;5051144;28;20387;-82
2021/10/19 02:32:16;;;;;;;22.50;20.10;;;8.70;99.90;;;;;;5050845;28;20379;-82
2021/10/19 02:34:41;;;;;;;26.20;22.52;;;8.70;99.90;;;;;;5049494;28;20454;-82
2021/10/19 02:37:07;;;;;;;23.08;20.52;;;8.70;99.90;;;;;;5050507;28;20380;-83
2021/10/19 02:39:33;;;;;;;25.88;22.38;;;8.70;99.90;;;;;;5050285;28;20879;-82
2021/10/19 02:41:58;;;;;;;24.87;22.17;;;8.60;99.90;;;;;;5050431;28;20395;-82
2021/10/19 02:44:24;;;;;;;24.30;21.52;;;8.60;99.90;;;;;;5049311;28;20371;-82
2021/10/19 02:46:49;;;;;;;23.03;20.63;;;8.60;99.90;;;;;;5049960;28;20881;-82
2021/10/19 02:49:15;;;;;;;24.87;22.13;;;8.60;99.90;;;;;;5050476;28;20796;-82
2021/10/19 02:51:41;;;;;;;25.75;22.92;;;8.60;99.90;;;;;;5049462;28;20955;-82
2021/10/19 02:54:07;;;;;;;24.70;21.38;;;8.60;99.90;;;;;;5048937;28;20388;-83
2021/10/19 02:56:32;;;;;;;23.75;20.70;;;8.60;99.90;;;;;;5050302;28;20429;-82
2021/10/19 02:58:58;;;;;;;24.83;21.93;;;8.60;99.90;;;;;;5049683;28;20406;-82
2021/10/19 03:01:24;;;;;;;25.70;21.40;;;8.60;99.90;;;;;;5050107;28;20434;-82
2021/10/19 03:03:49;;;;;;;22.70;20.23;;;8.60;99.90;;;;;;5050969;28;20383;-82
2021/10/19 03:06:15;;;;;;;26.27;20.42;;;8.70;99.90;;;;;;5050491;28;20368;-82
2021/10/19 03:08:41;;;;;;;21.40;19.10;;;8.60;99.90;;;;;;5050392;28;20448;-82
2021/10/19 03:11:06;;;;;;;20.92;18.73;;;8.70;99.90;;;;;;5049958;28;20380;-82
2021/10/19 03:13:32;;;;;;;22.83;19.88;;;8.70;99.90;;;;;;5049657;28;20437;-82
2021/10/19 03:15:58;;;;;;;24.43;20.80;;;8.70;99.90;;;;;;5049696;28;20450;-82
2021/10/19 03:18:23;;;;;;;24.23;21.23;;;8.70;99.90;;;;;;5048782;28;20395;-82
2021/10/19 03:20:49;;;;;;;21.90;19.25;;;8.70;99.90;;;;;;5048873;28;20410;-82
2021/10/19 03:23:16;;;;;;;22.70;20.02;;;8.70;99.90;;;;;;5049305;28;20372;-82
2021/10/19 03:25:42;;;;;;;23.92;19.35;;;8.70;99.90;;;;;;5049115;28;20962;-82
2021/10/19 03:28:08;;;;;;;20.80;18.53;;;8.70;99.90;;;;;;5049283;28;20411;-82
2021/10/19 03:30:34;;;;;;;21.03;18.40;;;8.70;99.90;;;;;;5049035;28;20469;-82
2021/10/19 03:33:01;;;;;;;21.40;19.02;;;8.70;99.90;;;;;;5048672;28;20387;-82
2021/10/19 03:35:26;;;;;;;20.20;18.00;;;8.70;99.90;;;;;;5048836;28;20384;-82
2021/10/19 03:37:54;;;;;;;20.77;18.47;;;8.70;99.90;;;;;;5048634;28;20892;-82
2021/10/19 03:40:19;;;;;;;22.73;20.30;;;8.70;99.90;;;;;;5053158;28;20380;-82
2021/10/19 03:42:48;;;;;;;23.65;20.58;;;8.60;99.90;;;;;;5053351;28;20410;-82
2021/10/19 03:45:14;;;;;;;23.35;20.33;;;8.60;99.90;;;;;;5051730;28;20449;-82
2021/10/19 03:47:39;;;;;;;23.20;20.70;;;8.60;99.90;;;;;;5051094;28;21071;-82
2021/10/19 03:50:06;;;;;;;23.38;20.73;;;8.60;99.90;;;;;;5053139;28;20873;-82
2021/10/19 03:52:31;;;;;;;26.90;22.30;;;8.50;99.90;;;;;;5052764;28;20382;-82
2021/10/19 03:54:57;;;;;;;23.00;20.25;;;8.50;99.90;;;;;;5052333;28;20782;-82
2021/10/19 03:57:22;;;;;;;23.63;20.30;;;8.50;99.90;;;;;;5052325;28;20410;-82
2021/10/19 03:59:48;;;;;;;25.13;22.40;;;8.40;99.90;;;;;;5051674;28;20380;-82
2021/10/19 04:02:14;;;;;;;22.30;20.02;;;8.40;99.90;;;;;;5052267;28;20468;-82
2021/10/19 04:04:39;;;;;;;23.30;20.83;;;8.40;99.90;;;;;;5052444;28;20430;-82
2021/10/19 04:07:05;;;;;;;22.60;20.30;;;8.40;99.90;;;;;;5051932;28;20411;-82
2021/10/19 04:09:30;;;;;;;22.27;19.88;;;8.40;99.90;;;;;;5052451;28;20870;-82
2021/10/19 04:11:56;;;;;;;22.17;19.77;;;8.40;99.90;;;;;;5052896;28;20845;-82
2021/10/19 04:14:22;;;;;;;22.73;20.03;;;8.40;99.90;;;;;;5051876;28;20379;-82
2021/10/19 04:16:48;;;;;;;25.90;20.88;;;8.30;99.90;;;;;;5052401;28;20805;-82
2021/10/19 04:19:13;;;;;;;23.85;21.23;;;8.30;99.90;;;;;;5052203;28;20427;-82
2021/10/19 04:21:45;;;;;;;29.83;25.40;;;8.30;99.90;;;;;;5052094;28;20403;-82
2021/10/19 04:24:11;;;;;;;37.50;30.53;;;8.20;99.90;;;;;;5050637;28;20482;-81
2021/10/19 04:26:37;;;;;;;28.67;25.60;;;8.20;99.90;;;;;;5051700;28;21165;-82
2021/10/19 04:29:02;;;;;;;29.03;25.83;;;8.30;99.90;;;;;;5051513;28;20380;-82
2021/10/19 04:31:29;;;;;;;29.75;25.55;;;8.30;99.90;;;;;;5051547;28;20869;-81
2021/10/19 04:33:56;;;;;;;28.40;24.98;;;8.30;99.90;;;;;;5051982;28;20784;-82
2021/10/19 04:36:22;;;;;;;36.25;29.88;;;8.20;99.90;;;;;;5050454;28;21050;-82
2021/10/19 04:38:48;;;;;;;33.78;28.33;;;8.20;99.90;;;;;;5051367;28;20395;-82
2021/10/19 04:41:13;;;;;;;35.90;30.20;;;8.20;99.90;;;;;;5051671;28;20400;-82
2021/10/19 04:43:39;;;;;;;42.27;31.30;;;8.20;99.90;;;;;;5051694;28;20379;-82
2021/10/19 04:46:04;;;;;;;32.90;29.40;;;8.30;99.90;;;;;;5050230;28;20442;-82
2021/10/19 04:48:30;;;;;;;30.37;26.87;;;8.30;99.90;;;;;;5050925;28;20394;-82
2021/10/19 04:50:55;;;;;;;33.00;27.93;;;8.30;99.90;;;;;;5051391;28;20387;-82
2021/10/19 04:53:21;;;;;;;37.17;30.92;;;8.30;99.90;;;;;;5051093;28;20923;-81
2021/10/19 04:55:48;;;;;;;31.93;28.10;;;8.30;99.90;;;;;;5051274;28;20453;-82
2021/10/19 04:58:15;;;;;;;31.65;28.20;;;8.30;99.90;;;;;;5049745;28;20392;-82
2021/10/19 05:00:42;;;;;;;31.85;28.00;;;8.30;99.90;;;;;;5050712;28;20478;-82
2021/10/19 05:03:07;;;;;;;33.65;26.90;;;8.30;99.90;;;;;;5049990;28;20449;-81
2021/10/19 05:05:33;;;;;;;43.35;32.75;;;8.40;99.90;;;;;;5052323;28;20396;-82
2021/10/19 05:07:58;;;;;;;39.40;33.13;;;8.50;99.90;;;;;;5050912;28;20368;-82
2021/10/19 05:10:24;;;;;;;35.70;30.37;;;8.50;99.90;;;;;;5051041;28;20391;-81
2021/10/19 05:12:49;;;;;;;35.13;30.33;;;8.50;99.90;;;;;;5051076;28;20374;-82
2021/10/19 05:15:15;;;;;;;35.93;30.43;;;8.50;99.90;;;;;;5050475;28;20471;-82
2021/10/19 05:17:44;;;;;;;41.60;34.37;;;8.60;99.90;;;;;;5050719;28;20403;-81
2021/10/19 05:20:10;;;;;;;40.65;32.95;;;8.60;99.90;;;;;;5048934;28;20415;-82
2021/10/19 05:22:36;;;;;;;39.92;33.45;;;8.60;99.90;;;;;;5049475;28;20400;-81
2021/10/19 05:25:03;;;;;;;42.15;35.58;;;8.60;99.90;;;;;;5050966;28;20430;-82
2021/10/19 05:27:28;;;;;;;41.92;34.88;;;8.70;99.90;;;;;;5050085;28;20368;-82
2021/10/19 05:29:54;;;;;;;35.15;31.27;;;8.70;99.90;;;;;;5049267;28;21602;-82
2021/10/19 05:32:20;;;;;;;37.27;31.10;;;8.70;99.90;;;;;;5051181;28;20384;-82
2021/10/19 05:34:45;;;;;;;38.58;30.30;;;8.70;99.90;;;;;;5050030;28;20947;-82
2021/10/19 05:37:11;;;;;;;36.30;31.30;;;8.80;99.90;;;;;;5050452;28;20380;-82
2021/10/19 05:39:37;;;;;;;38.17;32.70;;;8.80;99.90;;;;;;5050302;28;20388;-82
2021/10/19 05:42:04;;;;;;;41.23;35.30;;;8.80;99.90;;;;;;5050623;28;20462;-82
2021/10/19 05:44:30;;;;;;;43.67;36.20;;;8.80;99.90;;;;;;5050065;28;20426;-82
2021/10/19 05:46:55;;;;;;;40.80;34.85;;;8.80;99.90;;;;;;5048950;28;20411;-82
2021/10/19 05:49:21;;;;;;;40.40;34.50;;;8.80;99.90;;;;;;5050065;28;20387;-82
2021/10/19 05:51:48;;;;;;;35.10;30.58;;;8.80;99.90;;;;;;5049512;28;20987;-82
2021/10/19 05:54:15;;;;;;;38.83;33.15;;;8.90;99.90;;;;;;5050634;28;20383;-82
2021/10/19 05:56:41;;;;;;;39.90;32.30;;;8.90;99.90;;;;;;5050444;28;20765;-82
2021/10/19 05:59:08;;;;;;;38.95;32.13;;;9.00;99.90;;;;;;5050588;28;20483;-82
2021/10/19 06:01:34;;;;;;;36.60;32.38;;;9.00;99.90;;;;;;5049293;28;20407;-82
2021/10/19 06:04:00;;;;;;;39.80;32.97;;;9.10;99.90;;;;;;5050289;28;20384;-82
2021/10/19 06:06:25;;;;;;;37.42;31.98;;;9.10;99.90;;;;;;5048899;28;20392;-82
2021/10/19 06:08:51;;;;;;;38.72;33.90;;;9.20;99.90;;;;;;5050243;28;20392;-82
2021/10/19 06:11:18;;;;;;;40.05;33.47;;;9.20;99.90;;;;;;5050420;28;20486;-82
2021/10/19 06:13:44;;;;;;;41.88;36.20;;;9.30;99.90;;;;;;5049225;28;20424;-82
2021/10/19 06:16:09;;;;;;;36.63;31.77;;;9.40;99.90;;;;;;5049033;28;20368;-82
2021/10/19 06:18:35;;;;;;;41.50;35.83;;;9.50;99.90;;;;;;5050044;28;20401;-82
2021/10/19 06:21:01;;;;;;;41.95;35.45;;;9.50;99.90;;;;;;5050374;28;20403;-83
2021/10/19 06:23:27;;;;;;;43.38;34.97;;;9.60;99.90;;;;;;5048757;28;20395;-82
2021/10/19 06:25:53;;;;;;;40.50;33.80;;;9.70;99.90;;;;;;5049724;28;20758;-82
2021/10/19 06:28:19;;;;;;;35.67;31.63;;;9.70;99.90;;;;;;5048713;28;20391;-82
2021/10/19 06:30:44;;;;;;;37.90;32.47;;;9.80;99.90;;;;;;5049965;28;20392;-82
2021/10/19 06:33:10;;;;;;;36.20;31.33;;;9.90;99.90;;;;;;5050470;28;20387;-82
2021/10/19 06:35:36;;;;;;;36.73;32.50;;;10.00;99.90;;;;;;5048574;28;20426;-82
2021/10/19 06:38:01;;;;;;;37.25;32.20;;;10.10;99.90;;;;;;5050145;28;20443;-82
2021/10/19 06:40:27;;;;;;;36.47;32.33;;;10.10;99.90;;;;;;5049847;28;20376;-83
2021/10/19 06:42:52;;;;;;;34.45;30.75;;;10.20;99.90;;;;;;5049126;28;20433;-83
2021/10/19 06:45:18;;;;;;;35.75;31.10;;;10.30;99.90;;;;;;5048882;28;20961;-82
2021/10/19 06:47:44;;;;;;;35.90;32.00;;;10.40;99.90;;;;;;5048178;28;20998;-83
2021/10/19 06:50:10;;;;;;;33.97;30.10;;;10.40;99.90;;;;;;5050219;28;20394;-83
2021/10/19 06:52:36;;;;;;;32.70;29.05;;;10.50;99.90;;;;;;5049441;28;20923;-83
2021/10/19 06:55:04;;;;;;;35.40;30.87;;;10.60;99.90;;;;;;5047602;28;20404;-83
2021/10/19 06:57:30;;;;;;;31.00;27.70;;;10.70;99.90;;;;;;5047021;28;20808;-83
2021/10/19 07:00:00;;;;;;;32.30;28.83;;;10.80;99.90;;;;;;5047999;28;20719;-83
2021/10/19 07:02:25;;;;;;;32.78;29.23;;;10.90;99.90;;;;;;5048744;28;20407;-82
2021/10/19 07:04:51;;;;;;;32.60;29.10;;;11.00;99.90;;;;;;5048684;28;20949;-83
2021/10/19 07:07:17;;;;;;;30.77;27.47;;;11.10;99.90;;;;;;5048801;28;20484;-82
2021/10/19 07:09:42;;;;;;;30.00;26.80;;;11.20;99.90;;;;;;5049164;28;20418;-82
2021/10/19 07:12:08;;;;;;;31.95;28.55;;;11.30;99.90;;;;;;5048580;28;20384;-82
2021/10/19 07:14:34;;;;;;;32.22;28.73;;;11.40;99.90;;;;;;5048485;28;20459;-82
2021/10/19 07:16:59;;;;;;;31.53;28.10;;;11.40;99.90;;;;;;5049364;28;21217;-83
2021/10/19 07:19:25;;;;;;;32.95;27.80;;;11.50;99.90;;;;;;5048133;28;20382;-83
2021/10/19 07:21:50;;;;;;;31.00;27.13;;;11.60;99.90;;;;;;5049171;28;20896;-83
2021/10/19 07:24:16;;;;;;;31.33;26.58;;;11.70;99.90;;;;;;5049667;28;20391;-83
2021/10/19 07:26:41;;;;;;;33.87;28.03;;;11.90;99.90;;;;;;5049289;28;20394;-84
2021/10/19 07:29:07;;;;;;;29.07;25.97;;;11.90;99.90;;;;;;5048438;28;20395;-83
2021/10/19 07:31:33;;;;;;;30.83;27.48;;;11.90;99.90;;;;;;5047816;28;20873;-84
2021/10/19 07:33:59;;;;;;;30.43;26.43;;;11.90;99.90;;;;;;5050004;28;20379;-83
2021/10/19 07:36:25;;;;;;;30.40;26.30;;;11.90;99.90;;;;;;5049356;28;20433;-83
2021/10/19 07:38:52;;;;;;;30.95;27.52;;;11.90;99.90;;;;;;5048129;28;20426;-84
2021/10/19 07:41:18;;;;;;;29.57;25.43;;;12.00;99.90;;;;;;5049615;28;20403;-83
2021/10/19 07:43:43;;;;;;;29.30;25.80;;;12.10;99.90;;;;;;5050263;28;20399;-84
2021/10/19 07:46:09;;;;;;;28.98;25.52;;;12.30;99.90;;;;;;5048516;28;20418;-83
2021/10/19 07:48:35;;;;;;;28.37;25.33;;;12.40;99.90;;;;;;5049616;28;20384;-83
2021/10/19 07:51:00;;;;;;;28.33;25.13;;;12.50;99.90;;;;;;5047909;28;20388;-83
2021/10/19 07:53:26;;;;;;;27.65;24.75;;;12.50;99.90;;;;;;5049907;28;20437;-83
2021/10/19 07:55:51;;;;;;;28.53;23.83;;;12.50;99.90;;;;;;5039761;28;20937;-83
2021/10/19 07:58:17;;;;;;;27.30;23.88;;;12.50;99.90;;;;;;5028504;28;20374;-84
2021/10/19 08:00:43;;;;;;;27.57;24.67;;;12.50;99.90;;;;;;5048787;28;20418;-83
2021/10/19 08:03:08;;;;;;;30.65;26.25;;;12.60;99.90;;;;;;5044998;28;20391;-83
2021/10/19 08:05:34;;;;;;;29.70;26.50;;;12.50;99.90;;;;;;5048671;28;20874;-83
2021/10/19 08:08:10;;;;;;;28.27;25.07;;;12.50;99.90;;;;;;5047959;28;20885;-83
2021/10/19 08:10:38;;;;;;;30.47;25.70;;;12.60;99.90;;;;;;5046622;28;20852;-83
2021/10/19 08:13:04;;;;;;;25.98;23.25;;;12.60;99.90;;;;;;5046549;28;20891;-83
2021/10/19 08:15:30;;;;;;;28.73;25.13;;;12.70;99.90;;;;;;5049478;28;20376;-84
2021/10/19 08:17:55;;;;;;;27.35;24.35;;;12.80;99.90;;;;;;5047191;28;20450;-83
2021/10/19 08:20:22;;;;;;;26.60;23.40;;;12.90;99.90;;;;;;5048943;28;20375;-83
2021/10/19 08:22:47;;;;;;;24.25;21.65;;;13.10;99.90;;;;;;5047353;28;20923;-85
2021/10/19 08:25:13;;;;;;;26.05;23.25;;;13.30;99.90;;;;;;5051092;28;20380;-83
2021/10/19 08:27:42;;;;;;;26.27;22.53;;;13.50;99.90;;;;;;5038588;28;20419;-83
2021/10/19 08:30:10;;;;;;;23.73;20.55;;;13.70;99.90;;;;;;5048685;28;20765;-85
2021/10/19 08:32:35;;;;;;;25.80;21.52;;;13.90;99.90;;;;;;5048714;28;20928;-86
2021/10/19 08:35:01;;;;;;;23.73;21.20;;;14.20;99.90;;;;;;5048850;28;20364;-84
2021/10/19 08:37:27;;;;;;;24.90;21.47;;;14.40;99.90;;;;;;5049670;28;20380;-84
2021/10/19 08:39:52;;;;;;;23.90;20.88;;;14.80;99.90;;;;;;5048183;28;20399;-85
2021/10/19 08:42:18;;;;;;;25.73;20.77;;;15.00;99.90;;;;;;5047020;28;20423;-84
2021/10/19 08:44:47;;;;;;;25.55;21.10;;;15.20;99.90;;;;;;5048877;28;20371;-85
2021/10/19 08:47:14;;;;;;;21.87;19.57;;;15.20;99.90;;;;;;5049271;28;20399;-84
2021/10/19 08:49:40;;;;;;;20.33;18.15;;;15.40;99.90;;;;;;5050613;28;20372;-85
2021/10/19 08:52:08;;;;;;;23.45;18.63;;;15.90;99.90;;;;;;5047512;28;20482;-85
2021/10/19 08:54:34;;;;;;;20.63;18.42;;;16.00;99.90;;;;;;5046641;28;20391;-86
2021/10/19 08:56:59;;;;;;;20.33;17.92;;;16.00;99.90;;;;;;5046872;28;20383;-84
2021/10/19 08:59:26;;;;;;;22.50;18.33;;;16.00;99.90;;;;;;5048862;28;20432;-85
2021/10/19 09:01:56;;;;;;;21.30;17.88;;;16.10;99.90;;;;;;5048347;28;20415;-85
2021/10/19 09:04:27;;;;;;;22.60;18.43;;;16.30;99.90;;;;;;5045684;28;20391;-82
2021/10/19 09:06:52;;;;;;;21.88;17.17;;;16.40;99.90;;;;;;5044549;28;20480;-83
2021/10/19 09:09:24;;;;;;;20.33;16.93;;;16.20;99.90;;;;;;5036124;28;20426;-81
2021/10/19 09:11:51;;;;;;;20.02;17.85;;;16.30;99.90;;;;;;5040252;28;20385;-83
2021/10/19 09:14:19;;;;;;;22.58;18.65;;;16.20;99.90;;;;;;5040893;28;20387;-82
2021/10/19 09:16:51;;;;;;;19.95;17.77;;;16.20;99.90;;;;;;5040002;28;20403;-84
2021/10/19 09:19:19;;;;;;;18.13;16.23;;;16.10;99.90;;;;;;5035945;28;20471;-86
2021/10/19 09:21:48;;;;;;;20.95;17.60;;;16.30;99.90;;;;;;5041986;28;20757;-83
2021/10/19 09:24:22;;;;;;;21.02;16.90;;;16.30;99.90;;;;;;5042187;28;20468;-83
2021/10/19 09:26:58;;;;;;;23.67;18.67;;;16.50;99.90;;;;;;5048405;28;20399;-82
2021/10/19 09:29:25;;;;;;;18.98;16.45;;;16.40;99.90;;;;;;5050225;28;20904;-81
2021/10/19 09:31:56;;;;;;;19.38;17.35;;;16.50;99.90;;;;;;5052245;28;21118;-84
2021/10/19 09:34:23;;;;;;;18.45;16.42;;;16.50;99.90;;;;;;5050155;28;20395;-83
2021/10/19 09:36:51;;;;;;;17.40;15.47;;;16.40;99.90;;;;;;5050095;28;20388;-81
2021/10/19 09:39:32;;;;;;;18.23;15.60;;;16.40;99.90;;;;;;5050269;28;20395;-84
2021/10/19 09:41:58;;;;;;;23.60;17.10;;;16.40;99.90;;;;;;5050069;28;20404;-83
2021/10/19 09:44:24;;;;;;;19.80;17.38;;;16.40;99.90;;;;;;5051574;28;20814;-85
2021/10/19 09:46:50;;;;;;;19.85;16.75;;;16.20;99.90;;;;;;5049787;28;20974;-82
2021/10/19 09:49:17;;;;;;;22.03;16.73;;;16.10;99.90;;;;;;5050995;28;20427;-83
2021/10/19 09:51:44;;;;;;;17.70;15.60;;;16.20;99.90;;;;;;5050891;28;20376;-82
2021/10/19 09:54:11;;;;;;;17.80;15.73;;;16.20;99.90;;;;;;5050031;28;20384;-80
2021/10/19 09:56:38;;;;;;;19.88;16.48;;;16.20;99.90;;;;;;5046734;28;20770;-84
2021/10/19 09:59:05;;;;;;;20.05;15.50;;;16.30;99.90;;;;;;5040864;28;21285;-81
2021/10/19 10:01:34;;;;;;;17.52;15.68;;;16.50;99.90;;;;;;5039579;28;20411;-79
2021/10/19 10:04:01;;;;;;;17.67;15.65;;;16.70;99.90;;;;;;5031731;28;20381;-83
2021/10/19 10:06:28;;;;;;;18.75;15.13;;;16.80;99.90;;;;;;5046342;28;20449;-82
2021/10/19 10:08:56;;;;;;;19.52;15.13;;;16.80;99.90;;;;;;5049471;28;20383;-83
2021/10/19 10:11:21;;;;;;;17.08;15.27;;;16.70;99.90;;;;;;5049644;28;20391;-83
2021/10/19 10:13:58;;;;;;;17.10;14.85;;;16.70;99.90;;;;;;5051742;28;20392;-83
2021/10/19 10:16:24;;;;;;;19.50;16.00;;;16.70;99.90;;;;;;5052113;28;20378;-83
2021/10/19 10:18:50;;;;;;;17.10;15.27;;;16.70;99.90;;;;;;5050135;28;20376;-83
2021/10/19 10:21:18;;;;;;;17.48;15.05;;;16.60;99.90;;;;;;5050657;28;20396;-84
2021/10/19 10:23:44;;;;;;;18.33;15.57;;;16.60;99.90;;;;;;5052311;28;20738;-83
2021/10/19 10:26:32;;;;;;;17.58;15.52;;;16.50;99.90;;;;;;5048223;28;20382;-80
2021/10/19 10:29:08;;;;;;;18.58;15.68;;;16.50;99.90;;;;;;5048362;28;21126;-83
2021/10/19 10:31:53;;;;;;;17.33;15.00;;;16.60;99.90;;;;;;5050598;28;20418;-82
2021/10/19 10:34:32;;;;;;;16.38;13.98;;;16.80;99.90;;;;;;5065710;28;21398;-82
2021/10/19 10:37:12;;;;;;;18.33;13.75;;;17.00;99.90;;;;;;5050665;28;20387;-83
2021/10/19 10:39:46;;;;;;;19.80;14.45;;;17.30;99.90;;;;;;5049354;28;20399;-84
2021/10/19 10:42:13;;;;;;;17.60;14.93;;;17.40;99.90;;;;;;5039557;28;20480;-82
2021/10/19 10:44:41;;;;;;;16.48;14.00;;;17.40;99.90;;;;;;5030822;28;20890;-82
2021/10/19 10:47:09;;;;;;;15.37;12.93;;;17.60;99.90;;;;;;5050640;28;20380;-83
2021/10/19 10:49:35;;;;;;;15.55;13.27;;;17.70;99.90;;;;;;5051283;28;20380;-84
2021/10/19 10:52:12;;;;;;;15.82;13.70;;;17.80;99.90;;;;;;5050975;28;20719;-85
2021/10/19 10:54:38;;;;;;;14.57;13.07;;;17.70;99.90;;;;;;5049257;28;20394;-84
2021/10/19 10:57:03;;;;;;;15.02;13.25;;;17.60;99.90;;;;;;5049967;28;20746;-85
2021/10/19 10:59:32;;;;;;;14.50;13.00;;;17.50;99.90;;;;;;5051873;28;20398;-85
2021/10/19 11:02:08;;;;;;;17.75;12.98;;;17.50;99.90;;;;;;5049937;28;20936;-84
2021/10/19 11:04:44;;;;;;;17.92;15.85;;;17.60;99.90;;;;;;5051401;28;20738;-84
2021/10/19 11:07:10;;;;;;;17.13;14.68;;;17.60;99.90;;;;;;5050303;28;20853;-83
2021/10/19 11:09:37;;;;;;;16.07;13.33;;;17.70;99.90;;;;;;5051458;28;20530;-84
2021/10/19 11:12:03;;;;;;;15.07;13.15;;;17.80;99.90;;;;;;5050049;28;20893;-85
2021/10/19 11:14:29;;;;;;;19.67;15.25;;;17.80;99.90;;;;;;5048936;28;20384;-85
2021/10/19 11:16:56;;;;;;;16.73;14.60;;;17.70;99.90;;;;;;5049742;28;20459;-84
2021/10/19 11:19:27;;;;;;;14.32;12.75;;;17.70;99.90;;;;;;5050735;28;20451;-83
2021/10/19 11:21:56;;;;;;;15.67;13.97;;;17.80;99.90;;;;;;5049931;28;20403;-85
2021/10/19 11:24:24;;;;;;;14.38;12.80;;;17.90;99.90;;;;;;5052503;28;20390;-84
2021/10/19 11:26:51;;;;;;;16.35;13.95;;;17.80;99.90;;;;;;5051324;28;20380;-86
2021/10/19 11:29:18;;;;;;;15.38;13.50;;;17.80;99.90;;;;;;5051499;28;20379;-84
2021/10/19 11:31:44;;;;;;;16.65;14.15;;;17.60;99.90;;;;;;5052029;28;20387;-84
2021/10/19 11:34:10;;;;;;;14.23;12.82;;;17.50;99.90;;;;;;5051861;28;20386;-85
2021/10/19 11:36:37;;;;;;;16.70;13.50;;;17.30;99.90;;;;;;5049607;28;20391;-83
2021/10/19 11:39:11;;;;;;;13.55;12.02;;;17.40;99.90;;;;;;5051218;28;20376;-86
2021/10/19 11:41:38;;;;;;;15.55;12.82;;;17.40;99.90;;;;;;5050950;28;20825;-84
2021/10/19 11:44:06;;;;;;;14.18;11.75;;;17.40;99.90;;;;;;5050161;28;20400;-84
2021/10/19 11:46:37;;;;;;;14.48;12.65;;;17.50;99.90;;;;;;5052992;28;20449;-82
2021/10/19 11:49:06;;;;;;;14.70;11.93;;;17.50;99.90;;;;;;5051916;28;20398;-85
2021/10/19 11:51:33;;;;;;;14.10;11.48;;;17.40;99.90;;;;;;5051611;28;20387;-83
2021/10/19 11:54:01;;;;;;;15.30;12.10;;;17.40;99.90;;;;;;5051715;28;20376;-85
2021/10/19 11:56:27;;;;;;;13.27;10.95;;;17.40;99.90;;;;;;5051456;28;20886;-85
2021/10/19 11:58:55;;;;;;;11.75;10.55;;;17.50;99.90;;;;;;5051029;28;20391;-84
2021/10/19 12:01:23;;;;;;;12.73;10.85;;;17.60;99.90;;;;;;5053740;28;20434;-82
2021/10/19 12:04:00;;;;;;;13.98;11.00;;;17.70;99.90;;;;;;5054013;28;20418;-84
2021/10/19 12:06:29;;;;;;;13.60;10.63;;;17.80;99.90;;;;;;5052662;28;20438;-84
2021/10/19 12:09:09;;;;;;;12.10;10.77;;;17.90;99.90;;;;;;5054052;28;20425;-83
2021/10/19 12:11:34;;;;;;;12.57;10.65;;;18.10;99.90;;;;;;5052566;28;20470;-83
2021/10/19 12:14:02;;;;;;;13.48;10.63;;;18.20;99.90;;;;;;5053649;28;20911;-85
2021/10/19 12:16:30;;;;;;;12.70;11.35;;;18.10;99.90;;;;;;5054017;28;20399;-85
2021/10/19 12:18:58;;;;;;;13.32;10.70;;;18.10;99.90;;;;;;5053755;28;20762;-86
2021/10/19 12:21:26;;;;;;;12.05;10.85;;;18.00;99.90;;;;;;5052952;28;20882;-84
2021/10/19 12:24:02;;;;;;;11.88;10.68;;;18.00;99.90;;;;;;5053254;28;20380;-84
2021/10/19 12:26:31;;;;;;;12.13;10.48;;;17.80;99.90;;;;;;5053406;28;20501;-84
2021/10/19 12:29:02;;;;;;;11.85;10.60;;;17.70;99.90;;;;;;5053661;28;20463;-83
2021/10/19 12:31:29;;;;;;;14.40;10.03;;;17.80;99.90;;;;;;5052817;28;20368;-84